createdAt,value
2018-09-27T00:01:52.547Z,4.7
2018-09-27T00:05:53.411Z,4.18
2018-09-27T00:07:54.355Z,4.99
2018-09-27T00:11:55.127Z,4.61
2018-09-27T00:17:55.960Z,4.11
2018-09-27T00:21:57.021Z,3.72
2018-09-27T00:27:58.186Z,3.38
2018-09-27T00:31:59.060Z,2.9
2018-09-27T00:33:59.726Z,2.71
2018-09-27T00:38:00.537Z,2.78
2018-09-27T00:44:01.410Z,4.17
2018-09-27T00:48:02.389Z,3.88
2018-09-27T00:54:03.182Z,4.86
2018-09-27T00:58:03.988Z,4.45
2018-09-27T01:00:04.691Z,5.31
2018-09-27T01:04:05.491Z,4.97
2018-09-27T01:10:06.234Z,4.69
2018-09-27T01:14:07.175Z,4.27
2018-09-27T01:20:08.074Z,3.62
2018-09-27T01:24:08.773Z,3.68
2018-09-27T01:26:09.600Z,4.43
2018-09-27T01:30:10.688Z,4.04
2018-09-27T01:36:11.506Z,3.63
2018-09-27T01:40:12.342Z,4.3
2018-09-27T01:46:13.387Z,4
2018-09-27T01:50:14.594Z,4.03
2018-09-27T01:52:15.276Z,4.19
2018-09-27T01:56:16.005Z,4.19
2018-09-27T02:02:16.834Z,3.24
2018-09-27T02:06:17.589Z,3.83
2018-09-27T02:12:18.398Z,5.07
2018-09-27T02:16:19.251Z,3.62
2018-09-27T02:18:19.961Z,4.35
2018-09-27T02:22:20.688Z,3.5
2018-09-27T02:28:21.608Z,4.61
2018-09-27T02:32:22.357Z,3.06
2018-09-27T02:38:23.140Z,4.71
2018-09-27T02:42:23.904Z,4.72
2018-09-27T02:44:24.751Z,3.52
2018-09-27T02:48:25.478Z,3.31
2018-09-27T02:54:26.297Z,4.71
2018-09-27T02:58:27.077Z,5.48
2018-09-27T03:04:27.966Z,4.16
2018-09-27T03:08:28.742Z,5.18
2018-09-27T03:10:29.439Z,3.4
2018-09-27T03:14:30.226Z,5.79
2018-09-27T03:20:31.006Z,3.66
2018-09-27T03:24:31.757Z,3.22
2018-09-27T03:30:32.442Z,3.09
2018-09-27T03:34:33.207Z,3.6
2018-09-27T03:36:33.936Z,4.72
2018-09-27T03:40:34.696Z,5.55
2018-09-27T03:46:35.398Z,4.31
2018-09-27T03:50:36.262Z,3.82
2018-09-27T03:56:38.416Z,4.09
2018-09-27T04:00:39.253Z,4.74
2018-09-27T04:06:40.108Z,4.46
2018-09-27T04:12:40.909Z,4.89
2018-09-27T04:16:41.591Z,3.71
2018-09-27T04:22:42.500Z,7.24
2018-09-27T04:26:43.312Z,4.65
2018-09-27T04:28:44.072Z,6.14
2018-09-27T04:32:44.748Z,6.15
2018-09-27T04:38:45.625Z,6.43
2018-09-27T04:42:46.375Z,7.69
2018-09-27T04:48:47.219Z,6.23
2018-09-27T04:52:48.361Z,4.75
2018-09-27T04:54:49.261Z,7.52
2018-09-27T04:58:50.061Z,4.62
2018-09-27T05:04:50.819Z,12.21
2018-09-27T05:08:51.774Z,8.41
2018-09-27T05:14:52.348Z,9.36
2018-09-27T05:18:53.146Z,6.46
2018-09-27T05:20:53.877Z,9.09
2018-09-27T05:24:54.693Z,7.39
2018-09-27T05:30:55.521Z,10.34
2018-09-27T05:34:56.243Z,10.4
2018-09-27T05:40:57.002Z,7.22
2018-09-27T05:44:58.337Z,6.34
2018-09-27T05:50:59.120Z,10.11
2018-09-27T05:57:00.119Z,8.64
2018-09-27T06:01:00.852Z,8.23
2018-09-27T06:07:01.672Z,10.55
2018-09-27T06:11:02.432Z,8
2018-09-27T06:13:03.113Z,5.85
2018-09-27T06:17:03.861Z,7.05
2018-09-27T06:23:04.606Z,9.43
2018-09-27T06:27:05.441Z,10.35
2018-09-27T06:33:06.168Z,11.71
2018-09-27T06:37:07.006Z,19.56
2018-09-27T06:39:07.823Z,14.64
2018-09-27T06:43:08.533Z,14.45
2018-09-27T06:49:09.394Z,16.06
2018-09-27T06:53:10.311Z,12.17
2018-09-27T06:59:11.186Z,12.67
2018-09-27T07:03:11.982Z,12.21
2018-09-27T07:05:12.596Z,14.5
2018-09-27T07:09:13.342Z,12.02
2018-09-27T07:15:14.378Z,11.46
2018-09-27T07:19:15.179Z,9.44
2018-09-27T07:25:16.059Z,10.66
2018-09-27T07:29:16.704Z,10.1
2018-09-27T07:31:17.354Z,10.02
2018-09-27T07:35:18.163Z,9.72
2018-09-27T07:41:18.950Z,14.16
2018-09-27T07:45:20.055Z,17.03
2018-09-27T07:51:21.515Z,7.39
2018-09-27T07:55:22.531Z,9.04
2018-09-27T07:57:23.280Z,10.64
2018-09-27T08:01:24.037Z,11.05
2018-09-27T08:07:25.141Z,9.28
2018-09-27T08:11:26.975Z,9.86
2018-09-27T08:17:27.817Z,8.69
2018-09-27T08:21:31.388Z,9.99
2018-09-27T08:27:32.175Z,6.92
2018-09-27T08:33:33.056Z,5.78
2018-09-27T08:37:33.855Z,4.97
2018-09-27T08:43:35.217Z,5.59
2018-09-27T08:47:37.040Z,5.22
2018-09-27T08:53:37.845Z,4.58
2018-09-27T08:59:38.705Z,5.04
2018-09-27T09:03:39.725Z,5.89
2018-09-27T09:09:40.427Z,6.27
2018-09-27T09:13:41.251Z,6.67
2018-09-27T09:19:42.149Z,6.42
2018-09-27T09:25:42.758Z,6.37
2018-09-27T09:29:43.627Z,6.32
2018-09-27T09:35:44.311Z,6.02
2018-09-27T09:39:45.334Z,6.21
2018-09-27T09:45:46.052Z,9.94
2018-09-27T09:51:46.877Z,6.5
2018-09-27T09:55:47.627Z,5.42
2018-09-27T10:01:48.604Z,6.73
2018-09-27T10:05:49.539Z,8.14
2018-09-27T10:07:50.300Z,6.46
2018-09-27T10:11:51.077Z,5.03
2018-09-27T10:17:51.891Z,3.96
2018-09-27T10:21:52.648Z,6.66
2018-09-27T10:27:54.160Z,5.75
2018-09-27T10:31:54.873Z,5.41
2018-09-27T10:33:55.690Z,6.95
2018-09-27T10:37:56.471Z,5.99
2018-09-27T10:43:57.238Z,6.44
2018-09-27T10:47:58.012Z,5.72
2018-09-27T10:53:58.783Z,6.45
2018-09-27T10:57:59.485Z,5.16
2018-09-27T11:00:00.244Z,5.78
2018-09-27T11:04:00.994Z,6.19
2018-09-27T11:10:01.824Z,6
2018-09-27T11:14:02.653Z,7.42
2018-09-27T11:20:03.437Z,4.78
2018-09-27T11:24:04.494Z,5.79
2018-09-27T11:26:05.125Z,5.87
2018-09-27T11:30:06.479Z,6.39
2018-09-27T11:36:07.251Z,4.56
2018-09-27T11:40:08.164Z,7.22
2018-09-27T11:46:08.911Z,7.05
2018-09-27T11:50:09.619Z,6.5
2018-09-27T11:52:10.427Z,6.91
2018-09-27T11:56:11.344Z,5.79
2018-09-27T12:02:12.064Z,4.93
2018-09-27T12:06:12.724Z,6.61
2018-09-27T12:12:13.549Z,10.1
2018-09-27T12:16:22.621Z,5.73
2018-09-27T12:22:26.237Z,5.24
2018-09-27T12:28:27.600Z,7.02
2018-09-27T12:32:28.951Z,8.34
2018-09-27T12:38:29.738Z,10.99
2018-09-27T12:42:30.915Z,8.05
2018-09-27T12:48:31.783Z,5.38
2018-09-27T12:54:32.405Z,5.35
2018-09-27T12:58:33.392Z,4.69
2018-09-27T13:04:34.057Z,6.1
2018-09-27T13:08:34.839Z,4.44
2018-09-27T13:14:35.652Z,6.77
2018-09-27T13:20:36.435Z,8.7
2018-09-27T13:24:37.317Z,7.28
2018-09-27T13:30:37.907Z,7.81
2018-09-27T13:34:38.616Z,7.6
2018-09-27T13:40:39.308Z,4.46
2018-09-27T13:46:40.078Z,5.37
2018-09-27T13:50:40.814Z,5.75
2018-09-27T13:56:41.567Z,4.9
2018-09-27T14:00:42.358Z,3.02
2018-09-27T14:02:43.042Z,3.3
2018-09-27T14:06:43.952Z,5.73
2018-09-27T14:12:50.157Z,2.63
2018-09-27T14:16:50.944Z,1.98
2018-09-27T14:22:51.593Z,1.42
2018-09-27T14:26:52.572Z,1.49
2018-09-27T14:32:53.874Z,2.46
2018-09-27T14:38:54.520Z,4.04
2018-09-27T14:42:55.217Z,2.64
2018-09-27T14:48:55.884Z,2.31
2018-09-27T14:52:58.838Z,1.87
2018-09-27T14:58:59.649Z,3.21
2018-09-27T15:05:01.298Z,3
2018-09-27T15:09:02.176Z,4.08
2018-09-27T15:15:03.136Z,2.31
2018-09-27T15:19:04.101Z,3.49
2018-09-27T15:25:04.895Z,4.29
2018-09-27T15:31:05.885Z,4.97
2018-09-27T15:35:07.058Z,2.76
2018-09-27T15:41:08.222Z,3.29
2018-09-27T15:45:13.635Z,3.42
2018-09-27T15:51:14.744Z,2.01
2018-09-27T15:57:15.551Z,4.41
2018-09-27T16:01:16.451Z,5.22
2018-09-27T16:07:17.195Z,2.97
2018-09-27T16:11:17.940Z,3.88
2018-09-27T16:17:18.686Z,3.19
2018-09-27T16:23:19.411Z,3.77
2018-09-27T16:27:20.302Z,4.46
2018-09-27T16:33:21.183Z,3.47
2018-09-27T16:37:21.923Z,3.28
2018-09-27T16:39:22.668Z,3.77
2018-09-27T16:43:23.557Z,4.11
2018-09-27T16:49:29.444Z,2.95
2018-09-27T16:53:30.622Z,2.82
2018-09-27T16:59:31.579Z,3.61
2018-09-27T17:03:32.381Z,4.84
2018-09-27T17:09:33.068Z,3.86
2018-09-27T17:15:34.005Z,4.78
2018-09-27T17:19:34.977Z,3.23
2018-09-27T17:25:35.771Z,3.99
2018-09-27T17:29:36.700Z,3.76
2018-09-27T17:35:37.471Z,5.04
2018-09-27T17:41:38.242Z,2.51
2018-09-27T17:45:39.230Z,2.73
2018-09-27T17:51:40.160Z,4.96
2018-09-27T17:55:41.085Z,4.17
2018-09-27T18:01:41.869Z,3.98
2018-09-27T18:07:42.824Z,3.1
2018-09-27T18:11:43.823Z,3.83
2018-09-27T18:17:44.537Z,3.24
2018-09-27T18:21:45.286Z,5.37
2018-09-27T18:23:45.972Z,5.36
2018-09-27T18:27:46.644Z,4.38
2018-09-27T18:33:47.582Z,3.99
2018-09-27T18:37:48.538Z,4.31
2018-09-27T18:43:49.453Z,4.44
2018-09-27T18:47:50.743Z,3.81
2018-09-27T18:49:51.896Z,3.07
2018-09-27T18:53:53.786Z,3.8
2018-09-27T18:59:55.153Z,3.5
2018-09-27T19:03:56.235Z,3.99
2018-09-27T19:09:57.113Z,3.97
2018-09-27T19:13:58.896Z,3.72
2018-09-27T19:19:59.797Z,4.17
2018-09-27T19:26:00.792Z,4.13
2018-09-27T19:30:03.068Z,3.63
2018-09-27T19:36:04.725Z,2.99
2018-09-27T19:40:06.255Z,3.72
2018-09-27T19:46:11.394Z,2.75
2018-09-27T19:52:12.477Z,2.73
2018-09-27T19:56:18.472Z,2.82
2018-09-27T20:02:19.764Z,2.92
2018-09-27T20:06:20.829Z,2.47
2018-09-27T20:12:21.787Z,2.66
2018-09-27T20:18:22.805Z,6.34
2018-09-27T20:22:28.356Z,4.79
2018-09-27T20:28:29.804Z,5.92
2018-09-27T20:32:30.607Z,5.93
2018-09-27T20:38:41.076Z,2.57
2018-09-27T20:42:42.521Z,3.03
2018-09-27T20:48:43.375Z,2.46
2018-09-27T20:54:44.280Z,2.45
2018-09-27T20:58:45.692Z,3.6
2018-09-27T21:04:46.833Z,3.11
2018-09-27T21:08:47.807Z,2.15
2018-09-27T21:14:48.650Z,4.15
2018-09-27T21:20:49.382Z,3.95
2018-09-27T21:24:50.239Z,4.04
2018-09-27T21:30:51.055Z,3.14
2018-09-27T21:34:52.033Z,3.56
2018-09-27T21:36:52.775Z,2.72
2018-09-27T21:40:53.597Z,3.36
2018-09-27T21:46:54.412Z,2.32
2018-09-27T21:50:55.293Z,2.61
2018-09-27T21:56:56.079Z,2.82
2018-09-27T22:00:56.943Z,2.37
2018-09-27T22:02:57.774Z,2.89
2018-09-27T22:06:58.797Z,3.93
2018-09-27T22:12:59.591Z,4.92
2018-09-27T22:17:00.585Z,4.37
2018-09-27T22:23:01.444Z,4.04
2018-09-27T22:27:02.246Z,3.34
2018-09-27T22:29:03.065Z,3.64
2018-09-27T22:33:03.934Z,3.83
2018-09-27T22:39:04.797Z,5.73
2018-09-27T22:43:05.523Z,5.12
2018-09-27T22:49:06.277Z,3.65
2018-09-27T22:53:07.161Z,3.86
2018-09-27T22:55:07.856Z,4.41
2018-09-27T22:59:08.674Z,3.56
2018-09-27T23:05:09.532Z,5.11
2018-09-27T23:09:10.397Z,4.79
2018-09-27T23:15:11.732Z,4.62
2018-09-27T23:19:12.700Z,5.22
2018-09-27T23:21:13.484Z,3.94
2018-09-27T23:25:14.298Z,4.08
2018-09-27T23:31:15.095Z,5.64
2018-09-27T23:35:15.950Z,5.94
2018-09-27T23:41:16.823Z,3.52
2018-09-27T23:45:18.096Z,3.68
2018-09-27T23:47:18.826Z,5.63
2018-09-27T23:51:19.683Z,4.84
2018-09-27T23:57:20.407Z,3.91
